createdAt,value
2018-11-20T00:00:07.689Z,81.60
2018-11-20T00:01:08.113Z,81.60
2018-11-20T00:02:05.047Z,81.60
2018-11-20T00:03:05.107Z,81.50
2018-11-20T00:04:10.306Z,81.60
2018-11-20T00:05:05.591Z,81.60
2018-11-20T00:06:05.762Z,81.40
2018-11-20T00:07:05.870Z,81.50
2018-11-20T00:08:08.500Z,81.40
2018-11-20T00:09:07.979Z,81.40
2018-11-20T00:10:05.876Z,81.30
2018-11-20T00:11:06.040Z,81.40
2018-11-20T00:12:05.096Z,81.30
2018-11-20T00:13:05.168Z,81.30
2018-11-20T00:14:05.365Z,81.30
2018-11-20T00:15:07.982Z,81.30
2018-11-20T00:16:06.088Z,81.50
2018-11-20T00:17:05.188Z,81.40
2018-11-20T00:18:05.334Z,81.40
2018-11-20T00:19:05.455Z,81.40
2018-11-20T00:20:08.183Z,81.20
2018-11-20T00:21:05.153Z,81.30
2018-11-20T00:22:10.257Z,81.30
2018-11-20T00:23:05.224Z,81.30
2018-11-20T00:24:05.456Z,81.40
2018-11-20T00:25:05.579Z,81.40
2018-11-20T00:26:05.718Z,81.30
2018-11-20T00:27:08.237Z,81.50
2018-11-20T00:28:05.192Z,81.50
2018-11-20T00:29:05.528Z,81.60
2018-11-20T00:30:08.054Z,81.60
2018-11-20T00:31:04.962Z,81.70
2018-11-20T00:32:05.009Z,81.70
2018-11-20T00:33:07.604Z,81.70
2018-11-20T00:34:05.537Z,81.70
2018-11-20T00:35:05.571Z,81.80
2018-11-20T00:36:08.107Z,81.80
2018-11-20T00:37:04.994Z,81.70
2018-11-20T00:38:05.039Z,81.70
2018-11-20T00:39:05.059Z,81.80
2018-11-20T00:40:07.746Z,81.70
2018-11-20T00:41:05.699Z,81.80
2018-11-20T00:42:08.414Z,81.70
2018-11-20T00:43:05.316Z,81.60
2018-11-20T00:44:05.470Z,81.70
2018-11-20T00:45:05.503Z,81.60
2018-11-20T00:46:08.173Z,81.60
2018-11-20T00:47:05.182Z,81.60
2018-11-20T00:48:12.989Z,81.60
2018-11-20T00:49:05.945Z,81.60
2018-11-20T00:50:04.966Z,81.60
2018-11-20T00:51:08.004Z,81.60
2018-11-20T00:52:05.092Z,81.60
2018-11-20T00:53:07.671Z,81.50
2018-11-20T00:54:08.433Z,81.40
2018-11-20T00:55:05.405Z,81.40
2018-11-20T00:56:05.586Z,81.30
2018-11-20T00:57:05.705Z,81.30
2018-11-20T00:58:05.793Z,81.30
2018-11-20T00:59:08.308Z,81.30
2018-11-20T01:00:05.245Z,81.30
2018-11-20T01:01:05.297Z,81.20
2018-11-20T01:02:05.337Z,81.20
2018-11-20T01:03:05.422Z,81.20
2018-11-20T01:04:05.858Z,81.20
2018-11-20T01:05:08.652Z,81.20
2018-11-20T01:06:05.603Z,81.10
2018-11-20T01:07:05.715Z,81.20
2018-11-20T01:08:05.759Z,81.10
2018-11-20T01:09:08.461Z,81.10
2018-11-20T01:10:05.358Z,81.10
2018-11-20T01:11:07.890Z,81.10
2018-11-20T01:12:05.788Z,81.10
2018-11-20T01:13:05.925Z,81.10
2018-11-20T01:14:07.445Z,81.10
2018-11-20T01:15:05.349Z,81.10
2018-11-20T01:16:05.433Z,81.10
2018-11-20T01:17:08.039Z,81.10
2018-11-20T01:18:07.599Z,81.10
2018-11-20T01:19:08.162Z,81.10
2018-11-20T01:20:10.200Z,81.10
2018-11-20T01:21:05.093Z,81.10
2018-11-20T01:22:08.036Z,81.10
2018-11-20T01:23:05.919Z,81.10
2018-11-20T01:24:04.942Z,81.10
2018-11-20T01:25:04.922Z,81.00
2018-11-20T01:26:05.126Z,81.00
2018-11-20T01:27:07.809Z,81.10
2018-11-20T01:28:05.813Z,81.00
2018-11-20T01:29:05.308Z,81.00
2018-11-20T01:30:05.419Z,81.10
2018-11-20T01:31:08.067Z,81.10
2018-11-20T01:32:05.024Z,81.10
2018-11-20T01:33:05.143Z,81.10
2018-11-20T01:34:05.147Z,81.10
2018-11-20T01:35:05.183Z,81.10
2018-11-20T01:36:05.230Z,81.10
2018-11-20T01:37:05.280Z,81.10
2018-11-20T01:38:05.480Z,81.10
2018-11-20T01:39:05.680Z,81.20
2018-11-20T01:40:08.315Z,81.10
2018-11-20T01:41:07.779Z,81.10
2018-11-20T01:42:10.817Z,81.20
2018-11-20T01:43:08.309Z,81.10
2018-11-20T01:44:05.224Z,81.10
2018-11-20T01:45:05.248Z,81.10
2018-11-20T01:46:07.852Z,81.10
2018-11-20T01:47:05.745Z,81.20
2018-11-20T01:48:05.978Z,81.10
2018-11-20T01:49:07.542Z,81.20
2018-11-20T01:50:07.978Z,81.20
2018-11-20T01:51:04.974Z,81.20
2018-11-20T01:52:04.966Z,81.20
2018-11-20T01:53:04.985Z,81.20
2018-11-20T01:54:07.487Z,81.20
2018-11-20T01:55:08.110Z,81.20
2018-11-20T01:56:05.160Z,81.20
2018-11-20T01:57:05.223Z,81.20
2018-11-20T01:58:05.404Z,81.30
2018-11-20T01:59:05.436Z,81.30
2018-11-20T02:00:05.463Z,81.30
2018-11-20T02:01:05.631Z,81.30
2018-11-20T02:02:05.862Z,81.40
2018-11-20T02:03:05.041Z,81.40
2018-11-20T02:04:05.438Z,81.40
2018-11-20T02:05:05.612Z,81.40
2018-11-20T02:06:05.855Z,81.40
2018-11-20T02:07:07.478Z,81.50
2018-11-20T02:08:08.078Z,81.50
2018-11-20T02:09:07.504Z,81.60
2018-11-20T02:10:07.922Z,81.60
2018-11-20T02:11:05.832Z,81.60
2018-11-20T02:12:08.506Z,81.60
2018-11-20T02:13:05.408Z,81.60
2018-11-20T02:14:05.464Z,81.60
2018-11-20T02:15:08.114Z,81.70
2018-11-20T02:16:05.047Z,81.70
2018-11-20T02:17:05.113Z,81.60
2018-11-20T02:18:05.209Z,81.70
2018-11-20T02:19:07.990Z,81.70
2018-11-20T02:20:07.565Z,81.70
2018-11-20T02:21:05.533Z,81.70
2018-11-20T02:22:08.084Z,81.70
2018-11-20T02:23:05.054Z,81.70
2018-11-20T02:24:05.239Z,81.70
2018-11-20T02:25:05.431Z,81.80
2018-11-20T02:26:08.061Z,81.70
2018-11-20T02:27:04.983Z,81.70
2018-11-20T02:28:04.996Z,81.70
2018-11-20T02:29:05.678Z,81.60
2018-11-20T02:30:08.206Z,81.50
2018-11-20T02:31:07.612Z,81.60
2018-11-20T02:32:05.488Z,81.60
2018-11-20T02:33:05.899Z,81.60
2018-11-20T02:34:05.020Z,81.60
2018-11-20T02:35:07.759Z,81.60
2018-11-20T02:36:05.817Z,81.60
2018-11-20T02:37:05.889Z,81.60
2018-11-20T02:38:05.022Z,81.60
2018-11-20T02:39:07.564Z,81.60
2018-11-20T02:40:05.604Z,81.60
2018-11-20T02:41:05.765Z,81.60
2018-11-20T02:42:05.812Z,81.70
2018-11-20T02:43:05.795Z,81.70
2018-11-20T02:44:05.811Z,81.70
2018-11-20T02:45:05.855Z,81.70
2018-11-20T02:46:05.943Z,81.70
2018-11-20T02:47:04.981Z,81.70
2018-11-20T02:48:05.192Z,81.80
2018-11-20T02:49:05.354Z,81.90
2018-11-20T02:50:07.938Z,81.90
2018-11-20T02:51:10.985Z,81.90
2018-11-20T02:52:05.935Z,81.90
2018-11-20T02:53:05.009Z,81.90
2018-11-20T02:54:08.016Z,81.90
2018-11-20T02:55:05.082Z,81.90
2018-11-20T02:56:05.159Z,81.90
2018-11-20T02:57:05.185Z,82.00
2018-11-20T02:58:07.796Z,82.00
2018-11-20T02:59:08.469Z,82.00
2018-11-20T03:00:07.965Z,82.00
2018-11-20T03:01:05.919Z,82.00
2018-11-20T03:02:04.945Z,82.00
2018-11-20T03:03:05.011Z,82.00
2018-11-20T03:04:05.073Z,82.00
2018-11-20T03:05:05.263Z,82.00
2018-11-20T03:06:07.838Z,82.10
2018-11-20T03:07:05.793Z,82.10
2018-11-20T03:08:06.045Z,82.10
2018-11-20T03:09:05.147Z,82.10
2018-11-20T03:10:05.183Z,82.10
2018-11-20T03:11:05.230Z,82.10
2018-11-20T03:12:05.284Z,82.10
2018-11-20T03:13:05.442Z,82.10
2018-11-20T03:14:08.010Z,82.10
2018-11-20T03:15:05.921Z,82.10
2018-11-20T03:16:04.962Z,82.10
2018-11-20T03:17:07.585Z,82.10
2018-11-20T03:18:05.539Z,82.10
2018-11-20T03:19:05.666Z,82.10
2018-11-20T03:20:05.751Z,82.10
2018-11-20T03:21:05.766Z,82.10
2018-11-20T03:22:05.826Z,82.10
2018-11-20T03:23:05.924Z,82.10
2018-11-20T03:24:07.496Z,82.10
2018-11-20T03:25:05.829Z,82.20
2018-11-20T03:26:08.775Z,82.10
2018-11-20T03:27:06.017Z,82.10
2018-11-20T03:28:05.100Z,82.20
2018-11-20T03:29:05.712Z,82.20
2018-11-20T03:30:05.876Z,82.10
2018-11-20T03:31:05.903Z,82.10
2018-11-20T03:32:04.940Z,82.10
2018-11-20T03:33:05.013Z,82.10
2018-11-20T03:34:07.749Z,82.10
2018-11-20T03:35:08.204Z,82.10
2018-11-20T03:36:05.440Z,82.10
2018-11-20T03:37:05.465Z,82.10
2018-11-20T03:38:08.178Z,82.00
2018-11-20T03:39:07.584Z,82.00
2018-11-20T03:40:05.668Z,82.10
2018-11-20T03:41:06.376Z,82.10
2018-11-20T03:42:05.363Z,82.10
2018-11-20T03:43:05.411Z,82.10
2018-11-20T03:44:05.478Z,82.10
2018-11-20T03:45:05.625Z,82.10
2018-11-20T03:46:05.784Z,82.10
2018-11-20T03:47:08.296Z,82.10
2018-11-20T03:48:05.427Z,82.10
2018-11-20T03:49:05.559Z,82.10
2018-11-20T03:50:05.619Z,82.10
2018-11-20T03:51:05.618Z,82.00
2018-11-20T03:52:08.227Z,81.90
2018-11-20T03:53:05.167Z,81.90
2018-11-20T03:54:05.190Z,82.10
2018-11-20T03:55:05.298Z,82.10
2018-11-20T03:56:05.506Z,82.10
2018-11-20T03:57:08.059Z,82.10
2018-11-20T03:58:04.953Z,82.20
2018-11-20T03:59:05.035Z,82.10
2018-11-20T04:00:05.143Z,82.20
2018-11-20T04:01:07.719Z,82.30
2018-11-20T04:02:05.666Z,82.20
2018-11-20T04:03:05.692Z,82.30
2018-11-20T04:04:05.710Z,82.40
2018-11-20T04:05:05.787Z,82.40
2018-11-20T04:06:08.534Z,82.40
2018-11-20T04:07:05.607Z,82.40
2018-11-20T04:08:08.301Z,82.40
2018-11-20T04:09:07.900Z,82.50
2018-11-20T04:10:08.498Z,82.40
2018-11-20T04:11:08.152Z,82.50
2018-11-20T04:12:11.038Z,82.40
2018-11-20T04:13:05.148Z,82.50
2018-11-20T04:14:05.226Z,82.60
2018-11-20T04:15:05.232Z,82.40
2018-11-20T04:16:05.241Z,82.40
2018-11-20T04:17:05.470Z,82.40
2018-11-20T04:18:08.097Z,82.60
2018-11-20T04:19:04.945Z,82.50
2018-11-20T04:20:04.998Z,82.40
2018-11-20T04:21:04.988Z,82.50
2018-11-20T04:22:05.040Z,82.60
2018-11-20T04:23:05.206Z,82.50
2018-11-20T04:24:05.341Z,82.60
2018-11-20T04:25:05.360Z,82.60
2018-11-20T04:26:07.879Z,82.50
2018-11-20T04:27:08.426Z,82.60
2018-11-20T04:28:08.040Z,82.50
2018-11-20T04:29:05.091Z,82.40
2018-11-20T04:30:07.654Z,82.50
2018-11-20T04:31:05.535Z,82.50
2018-11-20T04:32:05.555Z,82.40
2018-11-20T04:33:05.671Z,82.40
2018-11-20T04:34:05.752Z,82.40
2018-11-20T04:35:05.800Z,82.40
2018-11-20T04:36:08.472Z,82.40
2018-11-20T04:37:05.357Z,82.40
2018-11-20T04:38:05.351Z,82.50
2018-11-20T04:39:07.923Z,82.50
2018-11-20T04:40:05.784Z,82.60
2018-11-20T04:41:06.031Z,82.50
2018-11-20T04:42:05.229Z,82.50
2018-11-20T04:43:07.794Z,82.60
2018-11-20T04:44:08.348Z,82.50
2018-11-20T04:45:05.358Z,82.50
2018-11-20T04:46:08.017Z,82.50
2018-11-20T04:47:04.945Z,82.60
2018-11-20T04:48:04.965Z,82.60
2018-11-20T04:49:07.614Z,82.60
2018-11-20T04:50:05.787Z,82.60
2018-11-20T04:51:08.366Z,82.60
2018-11-20T04:52:05.333Z,82.60
2018-11-20T04:53:05.378Z,82.60
2018-11-20T04:54:05.405Z,82.60
2018-11-20T04:55:07.957Z,82.60
2018-11-20T04:56:05.941Z,82.60
2018-11-20T04:57:07.641Z,82.60
2018-11-20T04:58:05.604Z,82.60
2018-11-20T04:59:05.727Z,82.60
2018-11-20T05:00:13.281Z,82.60
2018-11-20T05:01:05.212Z,82.60
2018-11-20T05:02:07.725Z,82.70
2018-11-20T05:03:05.637Z,82.70
2018-11-20T05:04:05.650Z,82.60
2018-11-20T05:05:05.623Z,82.60
2018-11-20T05:06:05.942Z,82.60
2018-11-20T05:07:05.922Z,82.60
2018-11-20T05:08:04.951Z,82.70
2018-11-20T05:09:04.941Z,82.70
2018-11-20T05:10:07.618Z,82.70
2018-11-20T05:11:05.570Z,82.70
2018-11-20T05:12:08.113Z,82.80
2018-11-20T05:13:07.748Z,82.80
2018-11-20T05:14:06.117Z,82.80
2018-11-20T05:15:05.153Z,82.80
2018-11-20T05:16:05.237Z,82.80
2018-11-20T05:17:07.784Z,82.90
2018-11-20T05:18:05.771Z,82.90
2018-11-20T05:19:05.848Z,82.80
2018-11-20T05:20:08.460Z,82.90
2018-11-20T05:21:05.336Z,82.90
2018-11-20T05:22:05.366Z,82.90
2018-11-20T05:23:05.485Z,83.00
2018-11-20T05:24:08.058Z,83.00
2018-11-20T05:25:05.361Z,83.00
2018-11-20T05:26:08.010Z,83.10
2018-11-20T05:27:07.516Z,83.00
2018-11-20T05:28:05.520Z,83.00
2018-11-20T05:29:08.777Z,83.00
2018-11-20T05:30:08.222Z,83.00
2018-11-20T05:31:05.537Z,83.00
2018-11-20T05:32:05.705Z,83.00
2018-11-20T05:33:05.815Z,83.00
2018-11-20T05:34:08.359Z,83.10
2018-11-20T05:35:05.249Z,83.10
2018-11-20T05:36:07.918Z,83.10
2018-11-20T05:37:08.395Z,83.10
2018-11-20T05:38:05.302Z,83.10
2018-11-20T05:39:05.333Z,83.10
2018-11-20T05:40:05.720Z,83.10
2018-11-20T05:41:05.841Z,83.10
2018-11-20T05:42:05.822Z,83.10
2018-11-20T05:43:05.818Z,83.10
2018-11-20T05:44:05.867Z,83.10
2018-11-20T05:45:08.383Z,83.10
2018-11-20T05:46:05.510Z,83.10
2018-11-20T05:47:08.143Z,83.10
2018-11-20T05:48:05.155Z,83.10
2018-11-20T05:49:05.349Z,83.10
2018-11-20T05:50:05.523Z,83.20
2018-11-20T05:51:10.656Z,83.10
2018-11-20T05:52:05.723Z,83.10
2018-11-20T05:53:05.833Z,83.10
2018-11-20T05:54:08.408Z,83.20
2018-11-20T05:55:05.358Z,83.20
2018-11-20T05:56:05.395Z,83.10
2018-11-20T05:57:07.931Z,83.10
2018-11-20T05:58:06.243Z,83.10
2018-11-20T05:59:05.428Z,83.10
2018-11-20T06:00:05.907Z,83.10
2018-11-20T06:01:05.906Z,83.10
2018-11-20T06:02:06.014Z,83.20
2018-11-20T06:03:05.042Z,83.10
2018-11-20T06:04:07.766Z,83.10
2018-11-20T06:05:05.761Z,83.10
2018-11-20T06:06:05.928Z,83.10
2018-11-20T06:07:05.049Z,83.10
2018-11-20T06:08:07.744Z,83.10
2018-11-20T06:09:05.718Z,83.10
2018-11-20T06:10:08.320Z,83.10
2018-11-20T06:11:07.754Z,83.10
2018-11-20T06:12:05.630Z,83.10
2018-11-20T06:13:05.589Z,83.10
2018-11-20T06:14:10.634Z,83.10
2018-11-20T06:15:05.616Z,83.10
2018-11-20T06:16:10.675Z,83.10
2018-11-20T06:17:08.134Z,83.20
2018-11-20T06:18:07.480Z,83.10
2018-11-20T06:19:05.664Z,83.10
2018-11-20T06:20:08.295Z,83.20
2018-11-20T06:21:05.238Z,83.20
2018-11-20T06:22:05.290Z,83.30
2018-11-20T06:23:05.392Z,83.30
2018-11-20T06:24:05.477Z,83.20
2018-11-20T06:25:05.654Z,83.30
2018-11-20T06:26:05.880Z,83.20
2018-11-20T06:27:05.959Z,83.10
2018-11-20T06:28:05.050Z,83.20
2018-11-20T06:29:05.227Z,83.20
2018-11-20T06:30:05.415Z,83.10
2018-11-20T06:31:10.494Z,83.30
2018-11-20T06:32:10.438Z,83.30
2018-11-20T06:33:05.460Z,83.20
2018-11-20T06:34:08.016Z,83.30
2018-11-20T06:35:06.203Z,83.30
2018-11-20T06:36:05.323Z,83.30
2018-11-20T06:37:05.353Z,83.20
2018-11-20T06:38:05.532Z,83.30
2018-11-20T06:39:06.430Z,83.40
2018-11-20T06:40:05.479Z,83.40
2018-11-20T06:41:05.681Z,83.40
2018-11-20T06:42:05.758Z,83.40
2018-11-20T06:43:05.801Z,83.40
2018-11-20T06:44:08.315Z,83.40
2018-11-20T06:45:05.196Z,83.40
2018-11-20T06:46:05.386Z,83.40
2018-11-20T06:47:05.603Z,83.40
2018-11-20T06:48:08.232Z,83.40
2018-11-20T06:49:07.726Z,83.40
2018-11-20T06:50:05.811Z,83.40
2018-11-20T06:51:05.958Z,83.40
2018-11-20T06:52:05.044Z,83.20
2018-11-20T06:53:10.689Z,83.40
2018-11-20T06:54:05.671Z,83.40
2018-11-20T06:55:05.811Z,83.40
2018-11-20T06:56:08.374Z,83.40
2018-11-20T06:57:05.355Z,83.40
2018-11-20T06:58:05.493Z,83.40
2018-11-20T06:59:05.590Z,83.40
2018-11-20T07:00:05.636Z,83.40
2018-11-20T07:01:05.687Z,83.40
2018-11-20T07:02:05.701Z,83.40
2018-11-20T07:03:05.764Z,83.40
2018-11-20T07:04:05.856Z,83.30
2018-11-20T07:05:08.410Z,83.40
2018-11-20T07:06:07.863Z,83.30
2018-11-20T07:07:08.433Z,83.40
2018-11-20T07:08:06.007Z,83.30
2018-11-20T07:09:05.297Z,83.40
2018-11-20T07:10:05.456Z,83.40
2018-11-20T07:11:05.620Z,83.40
2018-11-20T07:12:08.272Z,83.40
2018-11-20T07:13:05.280Z,83.40
2018-11-20T07:14:05.425Z,83.40
2018-11-20T07:15:05.660Z,83.40
2018-11-20T07:16:06.810Z,83.40
2018-11-20T07:17:07.888Z,83.50
2018-11-20T07:18:05.783Z,83.50
2018-11-20T07:19:05.888Z,83.40
2018-11-20T07:20:06.007Z,83.50
2018-11-20T07:21:10.264Z,83.50
2018-11-20T07:22:05.253Z,83.40
2018-11-20T07:23:05.496Z,83.40
2018-11-20T07:24:05.598Z,83.40
2018-11-20T07:25:05.696Z,83.40
2018-11-20T07:26:05.734Z,83.40
2018-11-20T07:27:08.375Z,83.50
2018-11-20T07:28:05.405Z,83.50
2018-11-20T07:29:05.611Z,83.40
2018-11-20T07:30:05.889Z,83.50
2018-11-20T07:31:05.162Z,83.50
2018-11-20T07:32:07.694Z,83.50
2018-11-20T07:33:05.712Z,83.50
2018-11-20T07:34:05.848Z,83.60
2018-11-20T07:35:08.412Z,83.60
2018-11-20T07:36:05.434Z,83.60
2018-11-20T07:37:06.364Z,83.60
2018-11-20T07:38:05.635Z,83.60
2018-11-20T07:39:05.797Z,83.60
2018-11-20T07:40:08.418Z,83.70
2018-11-20T07:41:05.334Z,83.60
2018-11-20T07:42:05.292Z,83.70
2018-11-20T07:43:08.000Z,83.60
2018-11-20T07:44:05.191Z,83.60
2018-11-20T07:45:05.338Z,83.70
2018-11-20T07:46:05.372Z,83.60
2018-11-20T07:47:07.943Z,83.60
2018-11-20T07:48:06.050Z,83.70
2018-11-20T07:49:05.385Z,83.70
2018-11-20T07:50:10.506Z,83.70
2018-11-20T07:51:05.442Z,83.70
2018-11-20T07:52:05.525Z,83.70
2018-11-20T07:53:08.175Z,83.70
2018-11-20T07:54:05.171Z,83.70
2018-11-20T07:55:07.901Z,83.70
2018-11-20T07:56:08.929Z,83.70
2018-11-20T07:57:05.008Z,83.60
2018-11-20T07:58:07.606Z,83.80
2018-11-20T07:59:05.568Z,83.80
2018-11-20T08:00:05.756Z,83.80
2018-11-20T08:01:06.034Z,83.80
2018-11-20T08:02:05.339Z,83.80
2018-11-20T08:03:11.399Z,83.70
2018-11-20T08:04:05.483Z,83.80
2018-11-20T08:05:05.547Z,83.70
2018-11-20T08:06:05.718Z,83.70
2018-11-20T08:07:05.741Z,83.70
2018-11-20T08:08:08.251Z,83.60
2018-11-20T08:09:07.778Z,83.60
2018-11-20T08:10:05.818Z,83.60
2018-11-20T08:11:08.416Z,83.60
2018-11-20T08:12:05.556Z,83.60
2018-11-20T08:13:05.656Z,83.60
2018-11-20T08:14:05.876Z,83.60
2018-11-20T08:15:05.902Z,83.60
2018-11-20T08:16:06.431Z,83.60
2018-11-20T08:17:05.549Z,83.50
2018-11-20T08:18:05.608Z,83.50
2018-11-20T08:19:08.163Z,83.50
2018-11-20T08:20:05.083Z,83.50
2018-11-20T08:21:07.775Z,83.40
2018-11-20T08:22:05.707Z,83.50
2018-11-20T08:23:05.722Z,83.40
2018-11-20T08:24:05.827Z,83.30
2018-11-20T08:25:06.189Z,83.40
2018-11-20T08:26:05.590Z,83.30
2018-11-20T08:27:05.772Z,83.20
2018-11-20T08:28:05.804Z,83.30
2018-11-20T08:29:05.032Z,83.30
2018-11-20T08:30:05.216Z,83.30
2018-11-20T08:31:05.543Z,83.30
2018-11-20T08:32:08.319Z,83.30
2018-11-20T08:33:05.220Z,83.30
2018-11-20T08:34:05.855Z,83.20
2018-11-20T08:35:08.688Z,83.10
2018-11-20T08:36:05.873Z,83.10
2018-11-20T08:37:05.109Z,83.20
2018-11-20T08:38:05.244Z,83.20
2018-11-20T08:39:05.220Z,83.10
2018-11-20T08:40:07.761Z,83.00
2018-11-20T08:41:08.205Z,83.00
2018-11-20T08:42:07.827Z,82.90
2018-11-20T08:43:05.892Z,82.90
2018-11-20T08:44:04.950Z,82.80
2018-11-20T08:45:04.972Z,82.70
2018-11-20T08:46:05.043Z,82.80
2018-11-20T08:47:05.125Z,82.80
2018-11-20T08:48:07.818Z,82.80
2018-11-20T08:49:08.739Z,82.80
2018-11-20T08:50:05.674Z,82.80
2018-11-20T08:51:05.759Z,82.70
2018-11-20T08:52:05.938Z,82.70
2018-11-20T08:53:04.995Z,82.70
2018-11-20T08:54:05.169Z,82.70
2018-11-20T08:55:05.291Z,82.70
2018-11-20T08:56:05.335Z,82.60
2018-11-20T08:57:05.376Z,82.60
2018-11-20T08:58:05.520Z,82.60
2018-11-20T08:59:05.639Z,82.60
2018-11-20T09:00:05.725Z,82.60
2018-11-20T09:01:05.744Z,82.70
2018-11-20T09:02:05.908Z,82.60
2018-11-20T09:03:05.028Z,82.70
2018-11-20T09:04:05.134Z,82.40
2018-11-20T09:05:07.725Z,82.50
2018-11-20T09:06:05.740Z,82.50
2018-11-20T09:07:05.887Z,82.50
2018-11-20T09:08:07.518Z,82.50
2018-11-20T09:09:05.459Z,82.50
2018-11-20T09:10:08.263Z,82.50
2018-11-20T09:11:05.366Z,82.50
2018-11-20T09:12:05.436Z,82.60
2018-11-20T09:13:08.104Z,82.50
2018-11-20T09:14:07.571Z,82.60
2018-11-20T09:15:05.646Z,82.60
2018-11-20T09:16:05.762Z,82.60
2018-11-20T09:17:06.001Z,82.60
2018-11-20T09:18:05.450Z,82.50
2018-11-20T09:19:05.502Z,82.50
2018-11-20T09:20:06.121Z,82.50
2018-11-20T09:21:05.368Z,82.50
2018-11-20T09:22:05.410Z,82.50
2018-11-20T09:23:05.387Z,82.40
2018-11-20T09:24:05.541Z,82.20
2018-11-20T09:25:08.219Z,82.20
2018-11-20T09:26:05.116Z,82.20
2018-11-20T09:27:05.224Z,82.20
2018-11-20T09:28:05.770Z,82.20
2018-11-20T09:29:05.839Z,82.10
2018-11-20T09:30:05.843Z,82.10
2018-11-20T09:31:05.913Z,82.10
2018-11-20T09:32:04.987Z,82.10
2018-11-20T09:33:07.528Z,82.20
2018-11-20T09:34:08.061Z,82.30
2018-11-20T09:35:05.346Z,82.20
2018-11-20T09:36:05.449Z,82.10
2018-11-20T09:37:05.606Z,82.20
2018-11-20T09:38:10.711Z,82.20
2018-11-20T09:39:08.175Z,82.20
2018-11-20T09:40:05.188Z,82.20
2018-11-20T09:41:10.414Z,82.10
2018-11-20T09:42:07.864Z,82.00
2018-11-20T09:43:05.804Z,81.90
2018-11-20T09:44:05.893Z,81.90
2018-11-20T09:45:05.982Z,81.90
2018-11-20T09:46:05.021Z,82.10
2018-11-20T09:47:05.337Z,82.10
2018-11-20T09:48:05.532Z,82.00
2018-11-20T09:49:07.655Z,82.00
2018-11-20T09:50:05.600Z,82.00
2018-11-20T09:51:08.154Z,81.90
2018-11-20T09:52:05.054Z,81.90
2018-11-20T09:53:07.563Z,81.90
2018-11-20T09:54:08.099Z,81.90
2018-11-20T09:55:05.029Z,81.90
2018-11-20T09:56:05.074Z,81.90
2018-11-20T09:57:05.252Z,81.80
2018-11-20T09:58:10.468Z,81.70
2018-11-20T09:59:08.207Z,81.70
2018-11-20T10:00:05.333Z,81.70
2018-11-20T10:01:05.498Z,81.80
2018-11-20T10:02:08.074Z,81.70
2018-11-20T10:03:04.973Z,81.70
2018-11-20T10:04:05.120Z,81.70
2018-11-20T10:05:05.264Z,81.70
2018-11-20T10:06:05.506Z,81.70
2018-11-20T10:07:05.837Z,81.80
2018-11-20T10:08:07.533Z,81.90
2018-11-20T10:09:08.115Z,81.80
2018-11-20T10:10:07.633Z,81.90
2018-11-20T10:11:05.647Z,81.90
2018-11-20T10:12:05.697Z,81.90
2018-11-20T10:13:10.826Z,81.70
2018-11-20T10:14:06.208Z,81.80
2018-11-20T10:15:05.503Z,81.70
2018-11-20T10:16:05.705Z,81.80
2018-11-20T10:17:05.797Z,81.80
2018-11-20T10:18:05.849Z,81.80
2018-11-20T10:19:05.912Z,81.70
2018-11-20T10:20:05.934Z,81.80
2018-11-20T10:21:04.999Z,81.80
2018-11-20T10:22:05.556Z,81.70
2018-11-20T10:23:05.549Z,81.80
2018-11-20T10:24:05.602Z,81.90
2018-11-20T10:25:06.057Z,81.90
2018-11-20T10:26:05.600Z,81.90
2018-11-20T10:27:05.707Z,81.90
2018-11-20T10:28:05.932Z,81.90
2018-11-20T10:29:08.034Z,81.80
2018-11-20T10:30:04.981Z,81.80
2018-11-20T10:31:05.028Z,81.70
2018-11-20T10:32:05.349Z,81.80
2018-11-20T10:33:07.994Z,81.80
2018-11-20T10:34:08.568Z,81.80
2018-11-20T10:35:05.535Z,81.80
2018-11-20T10:36:08.062Z,81.90
2018-11-20T10:37:04.962Z,81.90
2018-11-20T10:38:07.531Z,81.90
2018-11-20T10:39:05.373Z,81.90
2018-11-20T10:40:07.926Z,81.90
2018-11-20T10:41:05.944Z,81.90
2018-11-20T10:42:05.018Z,81.90
2018-11-20T10:43:07.677Z,81.80
2018-11-20T10:44:08.032Z,81.90
2018-11-20T10:45:04.953Z,81.90
2018-11-20T10:46:07.693Z,81.90
2018-11-20T10:47:08.201Z,81.80
2018-11-20T10:48:10.159Z,81.80
2018-11-20T10:49:05.232Z,81.80
2018-11-20T10:50:05.310Z,81.80
2018-11-20T10:51:08.064Z,81.90
2018-11-20T10:52:05.035Z,81.90
2018-11-20T10:53:05.054Z,81.90
2018-11-20T10:54:05.129Z,82.00
2018-11-20T10:55:05.313Z,81.90
2018-11-20T10:56:05.566Z,81.90
2018-11-20T10:57:05.795Z,82.00
2018-11-20T10:58:08.486Z,81.90
2018-11-20T10:59:05.569Z,81.90
2018-11-20T11:00:05.706Z,81.90
2018-11-20T11:01:05.772Z,81.90
2018-11-20T11:02:08.296Z,81.80
2018-11-20T11:03:05.220Z,81.80
2018-11-20T11:04:05.262Z,81.70
2018-11-20T11:05:08.139Z,81.70
2018-11-20T11:06:07.793Z,81.60
2018-11-20T11:07:06.821Z,81.60
2018-11-20T11:08:05.345Z,81.60
2018-11-20T11:09:05.689Z,81.60
2018-11-20T11:10:08.369Z,81.50
2018-11-20T11:11:05.476Z,81.50
2018-11-20T11:12:08.528Z,81.50
2018-11-20T11:13:08.098Z,81.60
2018-11-20T11:14:05.178Z,81.60
2018-11-20T11:15:05.162Z,81.60
2018-11-20T11:16:05.169Z,81.60
2018-11-20T11:17:05.263Z,81.70
2018-11-20T11:18:05.404Z,81.80
2018-11-20T11:19:05.420Z,81.90
2018-11-20T11:20:05.431Z,81.90
2018-11-20T11:21:05.677Z,82.00
2018-11-20T11:22:05.869Z,82.10
2018-11-20T11:23:05.918Z,82.20
2018-11-20T11:24:05.971Z,82.30
2018-11-20T11:25:05.022Z,82.50
2018-11-20T11:26:05.168Z,82.70
2018-11-20T11:27:05.283Z,82.90
2018-11-20T11:28:05.381Z,83.10
2018-11-20T11:29:05.464Z,83.40
2018-11-20T11:30:05.533Z,83.40
2018-11-20T11:31:05.660Z,83.60
2018-11-20T11:32:05.898Z,83.80
2018-11-20T11:33:05.880Z,84.00
2018-11-20T11:34:05.899Z,84.30
2018-11-20T11:35:06.021Z,84.50
2018-11-20T11:36:05.117Z,84.70
2018-11-20T11:37:05.186Z,85.00
2018-11-20T11:38:05.273Z,85.00
2018-11-20T11:39:07.641Z,85.30
2018-11-20T11:40:05.763Z,85.30
2018-11-20T11:41:08.417Z,85.60
2018-11-20T11:42:05.443Z,85.50
2018-11-20T11:43:05.475Z,85.60
2018-11-20T11:44:05.723Z,85.80
2018-11-20T11:45:05.748Z,86.00
2018-11-20T11:46:08.307Z,86.30
2018-11-20T11:47:07.761Z,86.30
2018-11-20T11:48:05.796Z,86.40
2018-11-20T11:49:05.033Z,86.50
2018-11-20T11:50:05.054Z,86.50
2018-11-20T11:51:05.025Z,86.70
2018-11-20T11:52:07.605Z,86.80
2018-11-20T11:53:05.467Z,86.80
2018-11-20T11:54:08.074Z,87.00
2018-11-20T11:55:05.152Z,87.00
2018-11-20T11:56:05.170Z,87.20
2018-11-20T11:57:05.210Z,87.30
2018-11-20T11:58:05.330Z,87.30
2018-11-20T11:59:05.427Z,87.50
2018-11-20T12:00:05.535Z,87.50
2018-11-20T12:01:05.533Z,87.70
2018-11-20T12:05:10.730Z,87.90
2018-11-20T12:06:05.637Z,88.00
2018-11-20T12:07:05.650Z,88.00
2018-11-20T12:08:10.856Z,88.00
2018-11-20T12:09:05.852Z,88.00
2018-11-20T12:10:06.081Z,88.10
2018-11-20T12:11:10.661Z,88.10
2018-11-20T12:12:05.602Z,88.10
2018-11-20T12:13:05.682Z,88.10
2018-11-20T12:14:05.941Z,88.10
2018-11-20T12:15:05.059Z,88.10
2018-11-20T12:16:05.112Z,88.20
2018-11-20T12:17:07.701Z,88.20
2018-11-20T12:18:05.643Z,88.20
2018-11-20T12:19:05.693Z,88.40
2018-11-20T12:20:05.750Z,88.30
2018-11-20T12:21:05.768Z,88.50
2018-11-20T12:22:08.257Z,88.50
2018-11-20T12:23:05.245Z,88.50
2018-11-20T12:24:05.401Z,88.50
2018-11-20T12:25:08.112Z,88.50
2018-11-20T12:26:05.252Z,88.60
2018-11-20T12:27:05.355Z,88.50
2018-11-20T12:28:05.396Z,88.60
2018-11-20T12:29:05.480Z,88.70
2018-11-20T12:30:08.150Z,88.70
2018-11-20T12:31:05.071Z,88.70
2018-11-20T12:32:08.673Z,88.60
2018-11-20T12:33:05.704Z,88.60
2018-11-20T12:34:05.945Z,88.60
2018-11-20T12:35:05.119Z,88.60
2018-11-20T12:36:05.150Z,88.60
2018-11-20T12:37:06.865Z,88.70
2018-11-20T12:38:05.955Z,88.50
2018-11-20T12:39:05.132Z,88.50
2018-11-20T12:40:05.300Z,88.40
2018-11-20T12:41:07.343Z,88.50
2018-11-20T12:42:07.982Z,88.30
2018-11-20T12:43:05.926Z,88.30
2018-11-20T12:44:06.387Z,88.30
2018-11-20T12:45:05.493Z,88.20
2018-11-20T12:46:05.475Z,88.00
2018-11-20T12:47:09.071Z,87.90
2018-11-20T12:48:05.426Z,87.90
2018-11-20T12:49:05.604Z,88.00
2018-11-20T12:50:05.720Z,87.80
2018-11-20T12:51:08.073Z,87.90
2018-11-20T12:52:06.310Z,87.90
2018-11-20T12:53:07.937Z,87.90
2018-11-20T12:54:05.912Z,87.90
2018-11-20T12:55:07.543Z,87.80